Time;durP1;ratioP1;P1;durP2;ratioP2;P2;SDS_P1;SDS_P2;PMS_P1;PMS_P2;Temp;Humidity;BMP_temperature;BMP_pressure;BME280_temperature;BME280_humidity;BME280_pressure;Samples;Min_cycle;Max_cycle;Signal;HPM_P1;HPM_P2
2022/08/22 00:08:57;;;;;;;1.1;2.2;;;;;;;16.4;100;98090;;;;
2022/08/22 00:18:57;;;;;;;1.5;4.5;;;;;;;16.5;100;98090;;;;
2022/08/22 00:28:57;;;;;;;1.5;4.5;;;;;;;16.4;100;98080;;;;
2022/08/22 00:38:57;;;;;;;1.5;4.5;;;;;;;16.5;100;98080;;;;
2022/08/22 00:49:56;;;;;;;1.5;3.1;;;;;;;16.6;100;98060;;;;
2022/08/22 00:59:57;;;;;;;1.5;3.1;;;;;;;16.6;100;98050;;;;
2022/08/22 01:09:57;;;;;;;1.5;3.1;;;;;;;16.7;100;98050;;;;
2022/08/22 01:20:57;;;;;;;2.5;5.6;;;;;;;16.7;100;98070;;;;
2022/08/22 01:30:57;;;;;;;2.5;5.6;;;;;;;16.7;100;98070;;;;
2022/08/22 01:40:57;;;;;;;2.5;5.6;;;;;;;16.6;100;98070;;;;
2022/08/22 01:51:57;;;;;;;2.5;4.7;;;;;;;16.6;100;98070;;;;
2022/08/22 02:01:57;;;;;;;2.5;4.7;;;;;;;16.8;100;98070;;;;
2022/08/22 02:12:57;;;;;;;2.5;4.7;;;;;;;16.8;100;98070;;;;
2022/08/22 02:23:57;;;;;;;1.8;3.1;;;;;;;16.9;100;98060;;;;
2022/08/22 02:34:57;;;;;;;1.8;3.1;;;;;;;16.9;100;98060;;;;
2022/08/22 02:45:57;;;;;;;1.6;4.5;;;;;;;17;100;98060;;;;
2022/08/22 02:55:57;;;;;;;1.6;4.5;;;;;;;16.9;100;98060;;;;
2022/08/22 03:05:57;;;;;;;1.6;4.5;;;;;;;17.1;100;98050;;;;
2022/08/22 03:15:57;;;;;;;1.9;6.1;;;;;;;17.1;100;98050;;;;
2022/08/22 03:25:57;;;;;;;1.9;6.1;;;;;;;16.9;100;98060;;;;
2022/08/22 03:36:57;;;;;;;1.9;6.1;;;;;;;17.1;100;98070;;;;
2022/08/22 03:47:57;;;;;;;1.7;5.2;;;;;;;17.2;100;98070;;;;
2022/08/22 03:57:57;;;;;;;1.7;5.2;;;;;;;17.1;100;98080;;;;
2022/08/22 04:08:57;;;;;;;1.7;5.2;;;;;;;17.3;100;98080;;;;
2022/08/22 04:18:57;;;;;;;2.5;8;;;;;;;17.4;100;98090;;;;
2022/08/22 04:29:57;;;;;;;2.5;8;;;;;;;17.4;100;98090;;;;
2022/08/22 04:39:57;;;;;;;2.5;8;;;;;;;17.1;100;98090;;;;
2022/08/22 04:50:57;;;;;;;4.1;9.6;;;;;;;17.4;100;98100;;;;
2022/08/22 05:01:57;;;;;;;4.1;9.6;;;;;;;17.6;100;98110;;;;
2022/08/22 05:11:59;;;;;;;4.1;9.6;;;;;;;17.5;100;98110;;;;
2022/08/22 05:21:57;;;;;;;5.2;9.9;;;;;;;17.6;100;98120;;;;
2022/08/22 05:32:57;;;;;;;5.2;9.9;;;;;;;17.8;100;98130;;;;
2022/08/22 05:43:57;;;;;;;5.2;9.9;;;;;;;17.9;100;98130;;;;
2022/08/22 05:53:57;;;;;;;7.8;14.9;;;;;;;17.7;100;98150;;;;
2022/08/22 06:03:57;;;;;;;7.8;14.9;;;;;;;17.7;100;98150;;;;
2022/08/22 06:14:57;;;;;;;7.8;14.9;;;;;;;18;100;98150;;;;
2022/08/22 06:25:57;;;;;;;10.6;16.8;;;;;;;18.2;100;98150;;;;
2022/08/22 06:36:57;;;;;;;10.6;16.8;;;;;;;18.2;100;98160;;;;
2022/08/22 06:47:57;;;;;;;10.1;14.6;;;;;;;18.4;100;98170;;;;
2022/08/22 06:58:57;;;;;;;10.1;14.6;;;;;;;18.6;100;98180;;;;
2022/08/22 07:09:57;;;;;;;10.1;14.6;;;;;;;18.6;100;98180;;;;
2022/08/22 07:20:58;;;;;;;10;21.1;;;;;;;18.9;100;98190;;;;
2022/08/22 07:30:57;;;;;;;10;21.1;;;;;;;18.9;100;98180;;;;
2022/08/22 07:40:57;;;;;;;10;21.1;;;;;;;19;100;98180;;;;
2022/08/22 07:50:57;;;;;;;10.5;17;;;;;;;18.8;100;98170;;;;
2022/08/22 08:01:57;;;;;;;10.5;17;;;;;;;19.2;100;98170;;;;
2022/08/22 08:12:57;;;;;;;10.5;17;;;;;;;19.2;100;98180;;;;
2022/08/22 08:22:57;;;;;;;14.8;23.8;;;;;;;19.6;100;98180;;;;
2022/08/22 08:33:57;;;;;;;14.8;23.8;;;;;;;19.4;100;98190;;;;
2022/08/22 08:44:57;;;;;;;14.8;23.8;;;;;;;19.6;100;98190;;;;
2022/08/22 08:54:57;;;;;;;17.9;26.4;;;;;;;19.4;100;98190;;;;
2022/08/22 09:05:57;;;;;;;17.9;26.4;;;;;;;19.2;100;98200;;;;
2022/08/22 09:15:57;;;;;;;15.4;24.2;;;;;;;19;100;98200;;;;
2022/08/22 09:25:58;;;;;;;15.4;24.2;;;;;;;19;100;98210;;;;
2022/08/22 09:36:57;;;;;;;15.4;24.2;;;;;;;18.9;100;98230;;;;
2022/08/22 09:46:57;;;;;;;13.8;22.1;;;;;;;19;100;98210;;;;
2022/08/22 09:57:58;;;;;;;13.8;22.1;;;;;;;19.1;100;98200;;;;
2022/08/22 10:07:57;;;;;;;13.8;22.1;;;;;;;19;100;98190;;;;
2022/08/22 10:17:57;;;;;;;11.6;16.4;;;;;;;19.2;100;98190;;;;
2022/08/22 10:28:57;;;;;;;11.6;16.4;;;;;;;18.9;100;98180;;;;
2022/08/22 10:38:57;;;;;;;11.6;16.4;;;;;;;19;100;98190;;;;
2022/08/22 10:49:57;;;;;;;9;12.9;;;;;;;19.5;100;98210;;;;
2022/08/22 11:00:57;;;;;;;9;12.9;;;;;;;20.4;100;98200;;;;
2022/08/22 11:11:57;;;;;;;9;12.9;;;;;;;21.8;100;98200;;;;
2022/08/22 11:21:57;;;;;;;7.3;11.6;;;;;;;23.2;100;98210;;;;
2022/08/22 11:32:57;;;;;;;7.3;11.6;;;;;;;22.9;100;98200;;;;
2022/08/22 11:42:57;;;;;;;7.3;11.6;;;;;;;23.7;100;98200;;;;
2022/08/22 11:52:57;;;;;;;9.3;14.6;;;;;;;23.5;100;98190;;;;
2022/08/22 12:02:57;;;;;;;9.3;14.6;;;;;;;24.1;100;98180;;;;
2022/08/22 12:13:57;;;;;;;9.3;14.6;;;;;;;24;100;98170;;;;
2022/08/22 12:23:57;;;;;;;9.6;12.3;;;;;;;23.9;100;98170;;;;
2022/08/22 12:33:57;;;;;;;9.6;12.3;;;;;;;24.4;100;98170;;;;
2022/08/22 12:44:57;;;;;;;9.6;12.3;;;;;;;23.8;100;98160;;;;
2022/08/22 12:54:57;;;;;;;10.3;12.8;;;;;;;24.5;100;98160;;;;
2022/08/22 13:04:57;;;;;;;10.3;12.8;;;;;;;25.4;100;98160;;;;
2022/08/22 13:15:57;;;;;;;10.3;12.8;;;;;;;25.6;100;98170;;;;
2022/08/22 13:26:57;;;;;;;9.6;12.2;;;;;;;25.4;100;98170;;;;
2022/08/22 13:36:57;;;;;;;9.6;12.2;;;;;;;25.3;100;98160;;;;
2022/08/22 13:47:57;;;;;;;8.7;11.9;;;;;;;25;100;98150;;;;
2022/08/22 13:57:57;;;;;;;8.7;11.9;;;;;;;25.6;100;98150;;;;
2022/08/22 14:08:57;;;;;;;8.7;11.9;;;;;;;25.5;100;98140;;;;
2022/08/22 14:18:57;;;;;;;8.7;14.2;;;;;;;25.5;100;98140;;;;
2022/08/22 14:28:57;;;;;;;8.7;14.2;;;;;;;25.5;100;98150;;;;
2022/08/22 14:39:57;;;;;;;8.7;14.2;;;;;;;24.7;100;98150;;;;
2022/08/22 14:50:57;;;;;;;8.5;12.2;;;;;;;24.6;100;98140;;;;
2022/08/22 15:00:57;;;;;;;8.5;12.2;;;;;;;24.4;100;98140;;;;
2022/08/22 15:10:57;;;;;;;8.5;12.2;;;;;;;23.1;100;98150;;;;
2022/08/22 15:21:57;;;;;;;9;12.1;;;;;;;22.4;100;98160;;;;
2022/08/22 15:31:57;;;;;;;9;12.1;;;;;;;22.2;100;98160;;;;
2022/08/22 15:42:57;;;;;;;9;12.1;;;;;;;21.9;100;98160;;;;
2022/08/22 15:53:57;;;;;;;11.8;15.5;;;;;;;21.9;100;98170;;;;
2022/08/22 16:03:57;;;;;;;11.8;15.5;;;;;;;21.7;100;98170;;;;
2022/08/22 16:13:57;;;;;;;11.8;15.5;;;;;;;21.4;100;98170;;;;
2022/08/22 16:24:57;;;;;;;13.1;18.6;;;;;;;21.1;100;98170;;;;
2022/08/22 16:35:57;;;;;;;13.1;18.6;;;;;;;20.6;100;98160;;;;
2022/08/22 16:45:57;;;;;;;13.1;18.6;;;;;;;20.2;100;98160;;;;
2022/08/22 16:56:57;;;;;;;16.8;22.1;;;;;;;20.1;100;98180;;;;
2022/08/22 17:06:57;;;;;;;16.8;22.1;;;;;;;19.8;100;98180;;;;
2022/08/22 17:16:57;;;;;;;19.3;30.6;;;;;;;19.4;100;98190;;;;
2022/08/22 17:26:57;;;;;;;19.3;30.6;;;;;;;19.3;100;98180;;;;
2022/08/22 17:37:57;;;;;;;19.3;30.6;;;;;;;19.1;100;98170;;;;
2022/08/22 17:47:57;;;;;;;21.8;30.6;;;;;;;19.2;100;98190;;;;
2022/08/22 17:58:57;;;;;;;21.8;30.6;;;;;;;19;100;98210;;;;
2022/08/22 18:08:58;;;;;;;21.8;30.6;;;;;;;18.9;100;98210;;;;
2022/08/22 18:19:57;;;;;;;22.5;30.3;;;;;;;18.9;100;98230;;;;
2022/08/22 18:29:57;;;;;;;22.5;30.3;;;;;;;18.9;100;98220;;;;
2022/08/22 18:40:57;;;;;;;22.5;30.3;;;;;;;18.9;100;98210;;;;
2022/08/22 18:51:57;;;;;;;22.8;28.1;;;;;;;18.7;100;98210;;;;
2022/08/22 19:01:57;;;;;;;22.8;28.1;;;;;;;18.7;100;98230;;;;
2022/08/22 19:11:57;;;;;;;22.8;28.1;;;;;;;18.6;100;98210;;;;
2022/08/22 19:22:57;;;;;;;16.5;22.4;;;;;;;18.6;100;98240;;;;
2022/08/22 19:32:57;;;;;;;16.5;22.4;;;;;;;18.5;100;98240;;;;
2022/08/22 19:42:57;;;;;;;16.5;22.4;;;;;;;18.5;100;98280;;;;
2022/08/22 19:53:57;;;;;;;9.8;12.6;;;;;;;18.1;100;98260;;;;
2022/08/22 20:04:57;;;;;;;9.8;12.6;;;;;;;17.9;100;98260;;;;
2022/08/22 20:15:57;;;;;;;9.8;12.6;;;;;;;18.2;100;98240;;;;
2022/08/22 20:26:57;;;;;;;7.5;10.9;;;;;;;18.1;100;98270;;;;
2022/08/22 20:37:57;;;;;;;7.5;10.9;;;;;;;18.2;100;98270;;;;
2022/08/22 20:47:57;;;;;;;6.3;9.1;;;;;;;18.2;100;98240;;;;
2022/08/22 20:58:57;;;;;;;6.3;9.1;;;;;;;18.3;100;98250;;;;
2022/08/22 21:19:57;;;;;;;4;7.1;;;;;;;18.2;100;98190;;;;
2022/08/22 21:29:57;;;;;;;4;7.1;;;;;;;18.2;100;98220;;;;
2022/08/22 21:40:57;;;;;;;4;7.1;;;;;;;17.8;100;98260;;;;
2022/08/22 21:51:57;;;;;;;4.5;7.7;;;;;;;18;100;98210;;;;
2022/08/22 22:02:57;;;;;;;4.5;7.7;;;;;;;17.9;100;98170;;;;
2022/08/22 22:13:57;;;;;;;4.5;7.7;;;;;;;18;100;98150;;;;
2022/08/22 22:23:57;;;;;;;5.5;7.8;;;;;;;18;100;98110;;;;
2022/08/22 22:34:57;;;;;;;5.5;7.8;;;;;;;18;100;98110;;;;
2022/08/22 22:44:57;;;;;;;5.5;7.8;;;;;;;18;100;98110;;;;
2022/08/22 22:55:57;;;;;;;4.4;6.9;;;;;;;17.9;100;98130;;;;
2022/08/22 23:05:57;;;;;;;4.4;6.9;;;;;;;17.9;100;98150;;;;
2022/08/22 23:15:57;;;;;;;4.4;6.9;;;;;;;18;100;98150;;;;
2022/08/22 23:25:57;;;;;;;6.1;9.1;;;;;;;17.8;100;98150;;;;
2022/08/22 23:36:57;;;;;;;6.1;9.1;;;;;;;17.6;100;98160;;;;
2022/08/22 23:46:57;;;;;;;6;8.9;;;;;;;17.6;100;98170;;;;
2022/08/22 23:57:57;;;;;;;6;8.9;;;;;;;17.6;100;98160;;;;
